Soleuvre, Luxembourg
Current Conditions -  °F | °C
As of 2:20 AM on Saturday 25 Oct 2014 (Local Time) from ELLX Reporting Station
NA  
Wind Chill: 42°   Ceiling: NA
Heat Index: 46°   Visibility: 4mi
Dew Point: 43°   Wind: 8mph
Humidity: 87%   Direction: 270°W
Pressure: 30.09"   Gusts: NA
Location:  49.53°N, 5.94°E
Report Text: ELLX 250020Z AUTO 27007KT 6000 NDV 08/06 Q1019
Loading
Personal Weather Stations






























Interactive Weather Map
Tropical Storm Tracking
New forecast layout! Learn more

10-Day Weather Forecast

Advertisements
Track Severe Weather on mobile